Time;durP1;ratioP1;P1;durP2;ratioP2;P2;SDS_P1;SDS_P2;PMS_P1;PMS_P2;Temp;Humidity;BMP_temperature;BMP_pressure;BME280_temperature;BME280_humidity;BME280_pressure;Samples;Min_cycle;Max_cycle;Signal;HPM_P1;HPM_P2
2023/05/23 00:01:54;;;;;;;17.60;9.87;;;;;;;15.82;100.00;100606.06;6025220;28;20064;-68
2023/05/23 00:04:50;;;;;;;15.10;9.73;;;;;;;15.51;100.00;100594.66;6016560;28;20027;-67
2023/05/23 00:07:45;;;;;;;15.48;9.90;;;;;;;15.32;100.00;100602.16;6025595;28;20105;-67
2023/05/23 00:10:40;;;;;;;16.10;9.77;;;;;;;15.23;100.00;100605.03;6023904;28;20029;-68
2023/05/23 00:13:36;;;;;;;16.47;10.17;;;;;;;15.19;100.00;100625.94;6021825;28;20482;-68
2023/05/23 00:16:31;;;;;;;17.43;10.97;;;;;;;14.92;100.00;100606.94;6043433;28;20030;-68
2023/05/23 00:19:26;;;;;;;20.33;10.75;;;;;;;14.83;100.00;100603.50;6031594;28;20062;-67
2023/05/23 00:22:22;;;;;;;18.80;11.03;;;;;;;15.01;100.00;100624.56;6017262;28;20031;-68
2023/05/23 00:25:17;;;;;;;23.77;13.37;;;;;;;14.98;100.00;100622.25;6028759;28;20066;-68
2023/05/23 00:28:13;;;;;;;20.07;12.40;;;;;;;14.95;100.00;100615.41;6030008;28;20748;-68
2023/05/23 00:31:08;;;;;;;22.23;13.10;;;;;;;14.98;100.00;100620.41;6030140;28;20038;-67
2023/05/23 00:34:03;;;;;;;24.67;15.07;;;;;;;15.17;100.00;100632.47;6029578;28;20030;-68
2023/05/23 00:37:01;;;;;;;28.20;15.97;;;;;;;15.21;100.00;100618.59;6028833;28;20018;-68
2023/05/23 00:39:56;;;;;;;26.73;15.05;;;;;;;15.16;100.00;100622.81;6029920;28;20036;-68
2023/05/23 00:42:51;;;;;;;29.87;15.77;;;;;;;15.26;100.00;100637.59;6029659;28;20026;-66
2023/05/23 00:45:47;;;;;;;26.50;15.10;;;;;;;15.21;100.00;100623.94;6032010;28;20487;-67
2023/05/23 00:48:42;;;;;;;26.88;15.13;;;;;;;15.11;100.00;100625.19;6034267;28;20022;-68
2023/05/23 00:51:38;;;;;;;28.10;15.93;;;;;;;15.09;100.00;100633.34;6016633;28;20045;-67
2023/05/23 00:54:33;;;;;;;23.30;14.53;;;;;;;15.05;100.00;100624.06;6021636;28;20034;-69
2023/05/23 00:57:28;;;;;;;27.63;15.40;;;;;;;14.96;100.00;100624.28;6050350;28;20517;-69
2023/05/23 01:00:24;;;;;;;24.87;14.37;;;;;;;14.85;100.00;100617.50;6052994;28;20293;-68
2023/05/23 01:03:20;;;;;;;25.15;15.77;;;;;;;14.93;100.00;100643.31;6025579;28;20142;-68
2023/05/23 01:06:16;;;;;;;24.67;14.93;;;;;;;14.86;100.00;100633.34;6029539;28;20026;-68
2023/05/23 01:09:13;;;;;;;28.00;15.70;;;;;;;15.01;100.00;100633.41;6018498;28;20030;-67
2023/05/23 01:12:17;;;;;;;26.92;15.55;;;;;;;14.98;100.00;100641.78;6046805;28;20047;-68
2023/05/23 01:15:17;;;;;;;27.63;15.63;;;;;;;14.93;100.00;100625.44;6050909;28;20397;-67
2023/05/23 01:18:23;;;;;;;29.42;15.82;;;;;;;14.85;100.00;100614.81;6045519;28;20084;-68
2023/05/23 01:21:19;;;;;;;25.30;14.50;;;;;;;14.83;100.00;100608.84;6045902;28;20048;-67
2023/05/23 01:24:20;;;;;;;27.83;15.68;;;;;;;14.83;100.00;100627.53;6033076;28;20022;-67
2023/05/23 01:27:34;;;;;;;27.52;14.50;;;;;;;14.85;100.00;100621.00;6014481;28;20035;-68
2023/05/23 01:30:31;;;;;;;25.30;15.15;;;;;;;14.77;100.00;100615.72;6022985;28;20113;-68
2023/05/23 01:33:27;;;;;;;30.58;15.75;;;;;;;14.87;100.00;100618.13;6026662;28;20022;-67
2023/05/23 01:36:22;;;;;;;29.17;15.23;;;;;;;14.92;100.00;100617.63;6026738;28;20025;-67
2023/05/23 01:39:18;;;;;;;28.53;15.10;;;;;;;14.97;100.00;100631.28;6026764;28;20306;-69
2023/05/23 01:42:13;;;;;;;29.65;14.95;;;;;;;14.97;100.00;100618.78;6016250;28;20038;-68
2023/05/23 01:45:09;;;;;;;34.10;15.85;;;;;;;14.99;100.00;100614.06;6027064;28;20033;-68
2023/05/23 01:48:05;;;;;;;31.75;16.98;;;;;;;15.09;100.00;100617.34;6026241;28;20096;-67
2023/05/23 01:51:01;;;;;;;33.72;16.55;;;;;;;15.03;100.00;100618.03;6028399;28;20022;-68
2023/05/23 01:53:56;;;;;;;46.55;20.98;;;;;;;15.13;100.00;100633.84;6030313;28;20033;-68
2023/05/23 01:56:53;;;;;;;46.92;21.02;;;;;;;15.13;100.00;100625.84;6051784;28;20123;-67
2023/05/23 01:59:48;;;;;;;41.15;21.92;;;;;;;15.19;100.00;100628.59;6051544;28;20103;-67
2023/05/23 02:02:43;;;;;;;50.28;23.88;;;;;;;15.27;100.00;100625.88;6067130;28;20466;-68
2023/05/23 02:05:39;;;;;;;51.33;23.20;;;;;;;15.25;100.00;100624.41;6050964;28;20045;-66
2023/05/23 02:08:34;;;;;;;55.50;25.77;;;;;;;15.29;100.00;100631.91;6051225;28;20047;-67
2023/05/23 02:11:30;;;;;;;56.93;27.00;;;;;;;15.22;100.00;100620.25;6027984;28;20089;-68
2023/05/23 02:14:27;;;;;;;67.93;30.52;;;;;;;15.23;100.00;100632.59;6027385;28;20277;-68
2023/05/23 02:17:23;;;;;;;70.15;31.98;;;;;;;15.18;100.00;100634.97;6027841;28;20053;-68
2023/05/23 02:20:18;;;;;;;76.65;33.85;;;;;;;15.08;100.00;100621.03;6027763;28;20026;-67
2023/05/23 02:23:13;;;;;;;86.70;36.47;;;;;;;14.81;100.00;100624.22;6027246;28;20034;-67
2023/05/23 02:26:08;;;;;;;96.10;40.43;;;;;;;14.70;100.00;100640.63;6023671;28;20088;-67
2023/05/23 02:29:04;;;;;;;93.57;40.40;;;;;;;14.54;100.00;100632.69;6018111;28;20034;-67
2023/05/23 02:31:59;;;;;;;88.13;37.47;;;;;;;14.52;100.00;100643.50;6026773;28;20069;-68
2023/05/23 02:34:54;;;;;;;88.47;37.20;;;;;;;14.43;100.00;100644.53;6049241;28;20033;-68
2023/05/23 02:37:50;;;;;;;84.87;36.00;;;;;;;14.32;100.00;100659.09;6050517;28;20289;-67
2023/05/23 02:40:45;;;;;;;82.35;34.17;;;;;;;14.32;100.00;100673.44;6020415;28;20026;-67
2023/05/23 02:43:41;;;;;;;76.40;31.20;;;;;;;14.16;100.00;100677.75;6017378;28;20039;-67
2023/05/23 02:46:36;;;;;;;64.57;30.20;;;;;;;14.12;100.00;100676.47;6026859;28;20378;-67
2023/05/23 02:49:31;;;;;;;64.77;29.27;;;;;;;14.03;100.00;100677.47;6022697;28;20269;-67
2023/05/23 02:52:26;;;;;;;58.47;28.33;;;;;;;14.00;100.00;100682.28;6026598;28;20030;-67
2023/05/23 02:55:22;;;;;;;47.40;24.40;;;;;;;13.90;100.00;100685.16;6026218;28;20491;-67
2023/05/23 02:58:17;;;;;;;49.57;23.77;;;;;;;13.87;100.00;100674.81;6025964;28;20027;-67
2023/05/23 03:01:13;;;;;;;49.10;23.17;;;;;;;13.74;100.00;100671.84;6021845;28;20281;-67
2023/05/23 03:04:09;;;;;;;45.00;22.48;;;;;;;13.82;100.00;100682.50;6026012;28;20378;-67
2023/05/23 03:07:05;;;;;;;45.58;20.88;;;;;;;13.63;100.00;100674.84;6026448;28;20061;-66
2023/05/23 03:10:00;;;;;;;41.45;20.98;;;;;;;13.68;100.00;100680.50;6026492;28;20069;-67
2023/05/23 03:12:55;;;;;;;39.03;19.40;;;;;;;13.58;100.00;100679.84;6024654;28;20038;-67
2023/05/23 03:15:51;;;;;;;37.60;18.87;;;;;;;13.60;100.00;100672.50;6012518;28;20038;-67
2023/05/23 03:18:46;;;;;;;36.90;18.13;;;;;;;13.69;100.00;100698.16;6021465;28;20121;-67
2023/05/23 03:21:43;;;;;;;34.93;18.13;;;;;;;13.66;100.00;100687.81;6022588;28;20039;-66
2023/05/23 03:24:38;;;;;;;33.63;16.73;;;;;;;13.63;100.00;100689.00;6030150;28;20030;-66
2023/05/23 03:27:33;;;;;;;34.60;16.83;;;;;;;13.60;100.00;100692.00;6026624;28;20045;-66
2023/05/23 03:30:29;;;;;;;29.40;15.88;;;;;;;13.64;100.00;100697.84;6026435;28;20026;-67
2023/05/23 03:33:24;;;;;;;30.45;16.35;;;;;;;13.69;100.00;100703.50;6028472;28;20049;-67
2023/05/23 03:36:20;;;;;;;27.30;14.50;;;;;;;13.63;100.00;100691.66;6012140;28;20363;-68
2023/05/23 03:39:16;;;;;;;29.38;14.55;;;;;;;13.50;100.00;100690.50;6024874;28;20022;-67
2023/05/23 03:42:11;;;;;;;25.10;13.80;;;;;;;13.64;100.00;100695.16;6025920;28;20142;-67
2023/05/23 03:45:06;;;;;;;30.03;14.43;;;;;;;13.65;100.00;100696.81;6025523;28;20500;-67
2023/05/23 03:48:02;;;;;;;28.58;15.07;;;;;;;13.56;100.00;100697.81;6025709;28;20022;-67
2023/05/23 03:50:57;;;;;;;36.63;15.77;;;;;;;13.60;100.00;100693.81;6025253;28;20090;-66
2023/05/23 03:53:52;;;;;;;29.37;13.37;;;;;;;13.52;100.00;100685.81;6025246;28;20274;-67
2023/05/23 03:56:47;;;;;;;26.53;13.53;;;;;;;13.52;100.00;100689.31;6025597;28;20030;-67
2023/05/23 03:59:43;;;;;;;28.70;13.87;;;;;;;13.61;100.00;100704.31;6030759;28;20412;-67
2023/05/23 04:02:39;;;;;;;23.43;12.77;;;;;;;13.64;100.00;100713.81;6030592;28;20081;-68
2023/05/23 04:05:34;;;;;;;25.55;13.50;;;;;;;13.61;100.00;100716.81;6029483;28;20281;-66
2023/05/23 04:08:32;;;;;;;26.50;12.70;;;;;;;13.45;100.00;100711.47;6030060;28;20046;-67
2023/05/23 04:11:28;;;;;;;25.77;12.40;;;;;;;13.53;100.00;100714.13;6022770;28;20089;-67
2023/05/23 04:14:24;;;;;;;26.13;13.43;;;;;;;13.54;100.00;100716.63;6030039;28;20038;-68
2023/05/23 04:17:20;;;;;;;24.67;12.13;;;;;;;13.46;100.00;100707.78;6034117;28;20040;-66
2023/05/23 04:20:15;;;;;;;24.85;11.50;;;;;;;13.56;100.00;100725.28;6024674;28;20026;-66
2023/05/23 04:23:10;;;;;;;28.10;12.40;;;;;;;13.44;100.00;100702.63;6029335;28;20469;-66
2023/05/23 04:26:06;;;;;;;28.23;14.20;;;;;;;13.59;100.00;100713.44;6029591;28;20035;-67
2023/05/23 04:29:03;;;;;;;27.10;12.40;;;;;;;13.67;100.00;100722.28;6030161;28;20269;-66
2023/05/23 04:31:58;;;;;;;30.45;12.77;;;;;;;13.80;100.00;100716.50;6030106;28;20080;-66
2023/05/23 04:34:55;;;;;;;29.17;13.67;;;;;;;13.78;100.00;100713.13;6029611;28;20409;-67
2023/05/23 04:37:55;;;;;;;24.58;12.52;;;;;;;13.89;100.00;100718.13;6030027;28;20376;-67
2023/05/23 04:40:51;;;;;;;22.92;12.00;;;;;;;13.95;100.00;100714.81;6025953;28;20042;-66
2023/05/23 04:43:46;;;;;;;25.13;13.45;;;;;;;13.88;100.00;100720.97;6029731;28;20425;-67
2023/05/23 04:46:44;;;;;;;26.70;13.27;;;;;;;13.82;100.00;100709.16;6029699;28;20030;-67
2023/05/23 04:49:39;;;;;;;27.80;13.10;;;;;;;13.77;100.00;100718.63;6017043;28;20034;-66
2023/05/23 04:52:34;;;;;;;23.43;12.53;;;;;;;13.78;100.00;100709.66;6025063;28;20042;-67
2023/05/23 04:55:30;;;;;;;26.43;13.07;;;;;;;13.78;100.00;100710.47;6018593;28;20034;-67
2023/05/23 04:58:26;;;;;;;21.67;11.57;;;;;;;13.75;100.00;100713.50;6028117;28;20022;-66
2023/05/23 05:01:24;;;;;;;22.30;12.63;;;;;;;13.93;100.00;100723.97;6028776;28;20050;-66
2023/05/23 05:04:21;;;;;;;21.83;11.93;;;;;;;13.92;100.00;100719.63;6026749;28;20525;-67
2023/05/23 05:07:17;;;;;;;23.20;11.88;;;;;;;13.84;100.00;100717.81;6036876;28;20030;-66
2023/05/23 05:10:15;;;;;;;20.80;11.02;;;;;;;13.94;100.00;100729.13;6038109;28;20109;-67
2023/05/23 05:13:10;;;;;;;20.30;10.60;;;;;;;13.84;100.00;100715.13;6027807;28;20034;-68
2023/05/23 05:16:06;;;;;;;21.20;10.70;;;;;;;13.89;100.00;100720.00;6018870;28;20090;-68
2023/05/23 05:19:02;;;;;;;22.20;11.18;;;;;;;13.92;100.00;100728.47;6041192;28;20469;-67
2023/05/23 05:21:59;;;;;;;18.35;9.50;;;;;;;13.80;100.00;100723.66;6039481;28;20478;-66
2023/05/23 05:24:54;;;;;;;17.77;9.77;;;;;;;13.84;100.00;100727.63;6048433;28;20038;-66
2023/05/23 05:27:49;;;;;;;18.27;10.00;;;;;;;13.70;100.00;100721.97;6039840;28;20077;-66
2023/05/23 05:30:45;;;;;;;17.33;9.90;;;;;;;13.67;100.00;100716.97;6017752;28;20057;-66
2023/05/23 05:33:40;;;;;;;19.10;9.87;;;;;;;13.68;100.00;100728.47;6029072;28;20496;-66
2023/05/23 05:36:35;;;;;;;22.20;9.40;;;;;;;13.55;100.00;100722.78;6037462;28;20025;-67
2023/05/23 05:39:31;;;;;;;19.23;9.33;;;;;;;13.45;100.00;100722.13;6029434;28;20038;-65
2023/05/23 05:42:26;;;;;;;19.87;9.67;;;;;;;13.53;100.00;100732.78;6034046;28;20038;-65
2023/05/23 05:45:21;;;;;;;18.37;9.27;;;;;;;13.42;100.00;100714.47;6023339;28;20033;-67
2023/05/23 05:48:17;;;;;;;19.58;9.18;;;;;;;13.44;100.00;100728.44;6026207;28;20465;-67
2023/05/23 05:51:12;;;;;;;22.17;10.50;;;;;;;13.44;100.00;100739.09;6029929;28;20446;-66
2023/05/23 05:54:07;;;;;;;19.53;9.33;;;;;;;13.37;100.00;100738.09;6034136;28;20034;-66
2023/05/23 05:57:03;;;;;;;19.03;9.73;;;;;;;13.30;100.00;100737.06;6023375;28;20018;-66
2023/05/23 05:59:58;;;;;;;19.25;9.10;;;;;;;13.17;100.00;100736.69;6026953;28;20281;-67
2023/05/23 06:02:56;;;;;;;22.92;9.20;;;;;;;13.10;100.00;100724.03;6024458;28;20034;-67
2023/05/23 06:05:51;;;;;;;20.70;9.52;;;;;;;13.07;100.00;100716.34;6028253;28;20034;-66
2023/05/23 06:08:46;;;;;;;21.40;9.43;;;;;;;13.16;100.00;100737.69;6027065;28;20438;-67
2023/05/23 06:11:42;;;;;;;23.63;10.50;;;;;;;13.09;100.00;100733.03;6032298;28;20088;-67
2023/05/23 06:14:37;;;;;;;28.40;12.10;;;;;;;13.11;100.00;100736.34;6016034;28;20126;-67
2023/05/23 06:17:32;;;;;;;22.97;10.87;;;;;;;13.15;100.00;100741.34;6033542;28;20037;-67
2023/05/23 06:20:27;;;;;;;22.97;10.37;;;;;;;13.16;100.00;100743.00;6024848;28;20117;-68
2023/05/23 06:23:23;;;;;;;19.87;9.27;;;;;;;13.10;100.00;100731.16;6032291;28;20280;-68
2023/05/23 06:26:18;;;;;;;21.27;9.60;;;;;;;13.13;100.00;100732.72;6019771;28;20042;-67
2023/05/23 06:29:13;;;;;;;19.93;9.30;;;;;;;13.12;100.00;100726.53;6024500;28;20433;-67
2023/05/23 06:32:09;;;;;;;20.07;10.50;;;;;;;13.22;100.00;100723.72;6037659;28;20100;-67
2023/05/23 06:35:04;;;;;;;21.17;9.23;;;;;;;13.28;100.00;100741.72;6044663;28;20040;-68
2023/05/23 06:38:00;;;;;;;19.20;9.02;;;;;;;13.29;100.00;100743.41;6038448;28;20029;-67
2023/05/23 06:40:55;;;;;;;20.83;9.47;;;;;;;13.21;100.00;100719.41;6024078;28;20026;-67
2023/05/23 06:43:50;;;;;;;20.70;10.40;;;;;;;13.28;100.00;100731.06;6032344;28;20037;-67
2023/05/23 06:46:46;;;;;;;19.93;9.63;;;;;;;13.35;100.00;100727.59;6039354;28;20673;-67
2023/05/23 06:49:42;;;;;;;18.27;9.55;;;;;;;13.44;100.00;100736.44;6037439;28;20057;-68
2023/05/23 06:52:37;;;;;;;18.13;9.40;;;;;;;13.39;100.00;100736.09;6016058;28;20048;-68
2023/05/23 06:55:32;;;;;;;17.17;9.57;;;;;;;13.38;100.00;100731.75;6031131;28;20041;-66
2023/05/23 06:58:28;;;;;;;20.90;9.95;;;;;;;13.44;100.00;100739.94;6047976;28;20426;-67
2023/05/23 07:01:25;;;;;;;20.33;10.20;;;;;;;13.40;100.00;100725.25;6027877;28;20485;-67
2023/05/23 07:04:20;;;;;;;18.38;9.85;;;;;;;13.32;100.00;100727.06;6021456;28;20041;-66
2023/05/23 07:07:15;;;;;;;16.10;10.13;;;;;;;13.45;100.00;100744.25;6027371;28;20405;-67
2023/05/23 07:10:10;;;;;;;16.97;9.33;;;;;;;13.58;100.00;100743.78;6023778;28;20513;-67
2023/05/23 07:13:06;;;;;;;18.03;9.47;;;;;;;13.45;100.00;100738.09;6035711;28;20373;-67
2023/05/23 07:16:01;;;;;;;18.05;9.15;;;;;;;13.33;100.00;100723.41;6030222;28;20462;-67
2023/05/23 07:18:56;;;;;;;18.80;9.50;;;;;;;13.47;100.00;100746.75;6030935;28;20121;-67
2023/05/23 07:21:52;;;;;;;18.10;9.83;;;;;;;13.44;100.00;100744.41;6039636;28;20032;-66
2023/05/23 07:24:47;;;;;;;21.37;9.53;;;;;;;13.53;100.00;100741.59;6022311;28;20038;-67
2023/05/23 07:27:42;;;;;;;14.43;8.00;;;;;;;13.42;100.00;100739.28;6019097;28;20535;-67
2023/05/23 07:30:38;;;;;;;16.67;8.50;;;;;;;13.39;100.00;100744.09;6021447;28;20037;-67
2023/05/23 07:33:33;;;;;;;15.93;7.97;;;;;;;13.36;100.00;100739.91;6029768;28;20038;-66
2023/05/23 07:36:32;;;;;;;11.73;7.05;;;;;;;13.34;100.00;100746.41;6049734;28;20295;-66
2023/05/23 07:39:28;;;;;;;12.65;5.93;;;;;;;13.19;100.00;100751.50;6036130;28;20146;-67
2023/05/23 07:42:23;;;;;;;11.97;7.00;;;;;;;13.11;100.00;100743.50;6006887;28;20474;-67
2023/05/23 07:45:18;;;;;;;12.47;7.03;;;;;;;13.22;100.00;100745.03;6024737;28;20038;-66
2023/05/23 07:48:14;;;;;;;11.40;6.20;;;;;;;13.18;100.00;100741.03;6025816;28;20033;-66
2023/05/23 07:51:09;;;;;;;12.80;7.27;;;;;;;13.26;100.00;100759.69;6026093;28;20038;-66
2023/05/23 07:54:05;;;;;;;12.63;6.53;;;;;;;13.30;100.00;100763.69;6025155;28;20289;-66
2023/05/23 07:57:00;;;;;;;11.98;6.30;;;;;;;13.20;100.00;100760.34;6023971;28;20313;-66
2023/05/23 07:59:55;;;;;;;11.82;5.95;;;;;;;13.23;100.00;100770.66;6015851;28;20050;-66
2023/05/23 08:02:50;;;;;;;11.67;6.23;;;;;;;13.20;100.00;100768.34;6025678;28;20030;-67
2023/05/23 08:05:46;;;;;;;10.43;5.70;;;;;;;13.00;100.00;100757.06;6025279;28;20471;-66
2023/05/23 08:08:42;;;;;;;10.43;5.70;;;;;;;12.91;100.00;100758.06;6042190;28;20042;-66
2023/05/23 08:11:37;;;;;;;9.32;5.82;;;;;;;12.98;100.00;100770.56;6038134;28;20079;-65
2023/05/23 08:14:33;;;;;;;12.70;6.60;;;;;;;12.99;100.00;100769.53;6031707;28;20486;-66
2023/05/23 08:17:28;;;;;;;10.32;5.93;;;;;;;12.97;100.00;100766.22;6025641;28;20039;-66
2023/05/23 08:20:29;;;;;;;11.50;6.20;;;;;;;12.84;100.00;100778.28;6025657;28;20034;-66
2023/05/23 08:23:25;;;;;;;10.98;5.80;;;;;;;12.92;100.00;100768.53;6024847;28;20394;-65
2023/05/23 08:26:20;;;;;;;9.73;5.57;;;;;;;12.96;100.00;100796.47;6022482;28;20041;-66
2023/05/23 08:29:15;;;;;;;12.15;5.85;;;;;;;12.87;100.00;100778.81;6025503;28;20062;-67
2023/05/23 08:32:11;;;;;;;12.70;5.93;;;;;;;12.94;100.00;100793.16;6026169;28;20030;-66
2023/05/23 08:35:07;;;;;;;11.67;6.23;;;;;;;12.93;100.00;100802.16;6030748;28;20029;-66
2023/05/23 08:38:08;;;;;;;10.73;6.97;;;;;;;12.82;100.00;100794.44;6024475;28;20018;-66
2023/05/23 08:41:04;;;;;;;14.55;8.02;;;;;;;12.86;100.00;100814.41;6025108;28;20038;-67
2023/05/23 08:44:00;;;;;;;14.98;8.40;;;;;;;12.65;100.00;100791.81;6022726;28;20474;-67
2023/05/23 08:47:01;;;;;;;16.98;9.27;;;;;;;12.70;100.00;100816.97;6025063;28;20080;-67
2023/05/23 08:49:57;;;;;;;25.08;10.13;;;;;;;12.58;100.00;100807.59;6023733;28;20473;-66
2023/05/23 08:52:55;;;;;;;24.85;11.82;;;;;;;12.59;100.00;100835.84;6028945;28;20030;-66
2023/05/23 08:55:50;;;;;;;24.48;11.18;;;;;;;12.54;100.00;100836.34;6027474;28;20030;-66
2023/05/23 08:58:46;;;;;;;22.10;10.70;;;;;;;12.52;100.00;100840.97;6028645;28;20025;-67
2023/05/23 09:01:42;;;;;;;22.38;10.57;;;;;;;12.53;100.00;100849.75;6051983;28;20053;-68
2023/05/23 09:04:38;;;;;;;20.77;10.82;;;;;;;12.64;100.00;100854.84;6027124;28;20030;-68
2023/05/23 09:07:33;;;;;;;18.20;9.47;;;;;;;12.48;100.00;100847.59;6028840;28;20117;-68
2023/05/23 09:10:28;;;;;;;17.87;8.03;;;;;;;12.43;100.00;100851.69;6026967;28;20284;-68
2023/05/23 09:13:24;;;;;;;15.30;7.00;;;;;;;12.44;100.00;100859.53;6028188;28;20081;-68
2023/05/23 09:16:20;;;;;;;17.33;7.63;;;;;;;12.44;100.00;100870.19;6028577;28;20057;-68
2023/05/23 09:19:17;;;;;;;17.58;8.02;;;;;;;12.37;100.00;100857.63;6028621;28;20375;-68
2023/05/23 09:22:12;;;;;;;18.08;8.57;;;;;;;12.45;100.00;100876.31;6020462;28;20113;-68
2023/05/23 09:25:08;;;;;;;17.10;8.47;;;;;;;12.33;100.00;100872.22;6026889;28;20071;-67
2023/05/23 09:28:03;;;;;;;17.88;8.60;;;;;;;12.33;100.00;100873.06;6038095;28;20030;-68
2023/05/23 09:30:59;;;;;;;21.40;10.30;;;;;;;12.30;100.00;100888.50;6028441;28;20038;-68
2023/05/23 09:33:55;;;;;;;24.08;11.20;;;;;;;12.24;100.00;100883.78;6027579;28;20351;-68
2023/05/23 09:36:54;;;;;;;25.10;11.50;;;;;;;12.17;100.00;100878.25;6019871;28;20517;-67
2023/05/23 09:39:49;;;;;;;23.90;11.25;;;;;;;12.10;100.00;100878.97;6027586;28;20026;-68
2023/05/23 09:42:46;;;;;;;30.63;12.20;;;;;;;12.16;100.00;100884.53;6038240;28;20045;-68
2023/05/23 09:45:41;;;;;;;23.38;11.07;;;;;;;12.12;100.00;100917.72;6026170;28;20026;-68
2023/05/23 09:48:36;;;;;;;22.83;11.13;;;;;;;12.15;100.00;100903.31;6044701;28;20488;-68
2023/05/23 09:51:32;;;;;;;22.00;10.50;;;;;;;11.99;100.00;100898.66;6051901;28;20060;-69
2023/05/23 09:54:27;;;;;;;31.92;12.18;;;;;;;12.07;100.00;100917.34;6050758;28;20366;-69
2023/05/23 09:57:23;;;;;;;21.93;9.63;;;;;;;11.98;100.00;100914.75;6043950;28;20022;-69
2023/05/23 10:00:19;;;;;;;23.43;9.77;;;;;;;12.07;100.00;100927.13;6019777;28;20026;-68
2023/05/23 10:03:16;;;;;;;19.60;9.07;;;;;;;12.05;100.00;100935.28;6020900;28;20681;-67
2023/05/23 10:06:16;;;;;;;16.23;9.13;;;;;;;12.00;100.00;100936.69;6019355;28;20027;-68
2023/05/23 10:09:14;;;;;;;;;;;;;;;11.94;100.00;100957.59;6028121;28;20031;-69
2023/05/23 10:12:20;;;;;;;20.90;8.18;;;;;;;11.92;100.00;100951.59;6018682;28;20246;-68
2023/05/23 10:15:17;;;;;;;21.50;8.23;;;;;;;11.81;100.00;100957.09;6024510;28;20059;-68
2023/05/23 10:18:18;;;;;;;18.73;9.18;;;;;;;11.91;100.00;100978.28;6021341;28;20077;-68
2023/05/23 10:21:21;;;;;;;;;;;;;;;11.86;100.00;100964.63;6026141;28;20034;-65
2023/05/23 10:24:17;;;;;;;18.35;7.55;;;;;;;11.83;100.00;100968.41;6022899;28;19910;-65
2023/05/23 10:27:13;;;;;;;20.60;7.45;;;;;;;11.75;100.00;100955.03;6032657;28;20109;-65
2023/05/23 10:30:09;;;;;;;17.70;7.68;;;;;;;11.63;100.00;100963.31;6027140;28;20041;-65
2023/05/23 10:33:05;;;;;;;17.85;6.90;;;;;;;11.70;100.00;100991.00;6021388;28;20374;-66
2023/05/23 10:36:15;;;;;;;15.57;6.38;;;;;;;11.72;100.00;100989.00;6020984;28;20113;-66
2023/05/23 10:39:35;;;;;;;16.48;6.65;;;;;;;11.79;100.00;100993.63;6025831;28;20034;-65
2023/05/23 10:42:44;;;;;;;14.75;6.13;;;;;;;11.81;100.00;100999.63;6026949;28;20022;-68
2023/05/23 10:45:44;;;;;;;17.08;5.70;;;;;;;11.71;100.00;100990.81;6025185;28;20113;-68
2023/05/23 10:48:43;;;;;;;13.27;6.00;;;;;;;11.77;100.00;101006.19;6026812;28;20037;-67
2023/05/23 10:51:38;;;;;;;11.52;5.18;;;;;;;11.71;100.00;100987.34;6021706;28;20041;-68
2023/05/23 10:54:35;;;;;;;9.90;4.97;;;;;;;11.68;100.00;101025.66;6026242;28;20402;-68
2023/05/23 10:57:30;;;;;;;10.48;4.75;;;;;;;11.57;100.00;101017.84;6022065;28;20030;-65
2023/05/23 11:00:26;;;;;;;12.75;4.40;;;;;;;11.53;100.00;101011.16;6034603;28;20690;-67
2023/05/23 11:03:37;;;;;;;11.93;4.93;;;;;;;11.57;100.00;101025.81;6020147;28;20069;-68
2023/05/23 11:06:44;;;;;;;9.00;4.72;;;;;;;11.49;100.00;101012.44;6019777;28;20471;-67
2023/05/23 11:10:07;;;;;;;14.00;5.80;;;;;;;11.58;100.00;101024.81;6036244;28;20091;-66
2023/05/23 11:13:06;;;;;;;11.65;4.38;;;;;;;11.42;100.00;101016.63;6050104;28;20455;-68
2023/05/23 11:16:29;;;;;;;9.35;3.78;;;;;;;11.57;100.00;101044.41;6049115;28;20417;-68
2023/05/23 11:19:28;;;;;;;9.25;4.20;;;;;;;11.68;100.00;101048.72;6049943;28;20026;-68
2023/05/23 11:22:28;;;;;;;8.45;2.83;;;;;;;11.66;100.00;101050.69;6049620;28;20385;-67
2023/05/23 11:25:42;;;;;;;8.48;3.35;;;;;;;11.63;100.00;101064.25;6023962;28;20029;-68
2023/05/23 11:28:54;;;;;;;7.78;3.25;;;;;;;11.49;100.00;101057.59;6049984;28;20080;-68
2023/05/23 11:31:50;;;;;;;9.45;3.47;;;;;;;11.48;100.00;101055.91;6049941;28;20038;-66
2023/05/23 11:34:45;;;;;;;14.40;3.80;;;;;;;11.60;100.00;101076.00;6049231;28;20088;-66
2023/05/23 11:37:40;;;;;;;9.73;2.77;;;;;;;11.57;100.00;101073.63;6049802;28;20279;-66
2023/05/23 11:40:37;;;;;;;9.80;3.67;;;;;;;11.49;100.00;101088.59;6028610;28;20038;-68
2023/05/23 11:43:32;;;;;;;10.40;3.80;;;;;;;11.28;100.00;101075.47;6025113;28;20800;-65
2023/05/23 11:46:27;;;;;;;10.90;3.60;;;;;;;11.29;100.00;101093.09;6026252;28;20026;-65
2023/05/23 11:49:23;;;;;;;12.43;3.93;;;;;;;11.08;100.00;101065.88;6026009;28;20036;-66
2023/05/23 11:52:18;;;;;;;12.97;4.23;;;;;;;11.16;100.00;101087.25;6026183;28;20323;-66
2023/05/23 11:55:13;;;;;;;16.73;4.73;;;;;;;11.23;100.00;101096.31;6025496;28;20080;-67
2023/05/23 11:58:09;;;;;;;9.90;4.10;;;;;;;11.30;100.00;101105.41;6018541;28;20038;-67
2023/05/23 12:01:06;;;;;;;14.57;3.45;;;;;;;11.26;100.00;101093.38;6025935;28;20054;-66
2023/05/23 12:04:08;;;;;;;10.65;3.72;;;;;;;11.32;100.00;101098.13;6020521;28;20125;-66
2023/05/23 12:07:05;;;;;;;14.57;4.60;;;;;;;11.29;100.00;101099.25;6025832;28;20026;-67
2023/05/23 12:10:00;;;;;;;14.88;3.80;;;;;;;11.34;100.00;101106.78;6025787;28;20030;-67
2023/05/23 12:12:55;;;;;;;10.87;3.60;;;;;;;11.43;100.00;101113.91;6021954;28;20042;-67
2023/05/23 12:15:55;;;;;;;13.13;4.07;;;;;;;11.46;100.00;101110.97;6021314;28;20058;-65
2023/05/23 12:18:51;;;;;;;11.50;4.22;;;;;;;11.51;100.00;101106.06;6027147;28;20089;-66
2023/05/23 12:21:47;;;;;;;11.63;3.90;;;;;;;11.31;100.00;101091.13;6030696;28;20066;-67
2023/05/23 12:24:46;;;;;;;12.48;3.83;;;;;;;11.52;100.00;101123.69;6029750;28;20038;-68
2023/05/23 12:27:43;;;;;;;13.38;3.60;;;;;;;11.54;100.00;101116.41;6029327;28;20019;-66
2023/05/23 12:30:42;;;;;;;11.85;3.85;;;;;;;11.50;100.00;101115.00;6018476;28;20120;-67
2023/05/23 12:33:39;;;;;;;10.68;3.75;;;;;;;11.71;100.00;101121.00;6053216;28;20048;-66
2023/05/23 12:36:37;;;;;;;13.95;4.13;;;;;;;11.70;100.00;101106.06;6053897;28;20025;-66
2023/05/23 12:39:35;;;;;;;10.52;3.78;;;;;;;12.00;100.00;101136.06;6037687;28;20046;-67
2023/05/23 12:42:49;;;;;;;10.43;3.85;;;;;;;12.04;100.00;101122.31;6024649;28;20026;-66
2023/05/23 12:45:44;;;;;;;14.88;3.80;;;;;;;12.38;100.00;101126.09;6026372;28;20196;-67
2023/05/23 12:48:40;;;;;;;12.53;3.43;;;;;;;12.58;100.00;101131.31;6028754;28;20473;-66
2023/05/23 12:51:35;;;;;;;11.77;3.27;;;;;;;12.93;98.05;101148.19;6029984;28;20026;-67
2023/05/23 12:54:30;;;;;;;11.82;2.97;;;;;;;13.34;94.21;101141.47;6029029;28;20907;-66
2023/05/23 12:57:26;;;;;;;10.43;2.63;;;;;;;13.44;90.60;101125.38;6029590;28;20420;-67
2023/05/23 13:00:21;;;;;;;9.77;2.93;;;;;;;13.27;91.27;101123.56;6029588;28;20607;-68
2023/05/23 13:03:17;;;;;;;8.88;3.00;;;;;;;12.94;93.01;101127.72;6024548;28;20037;-68
2023/05/23 13:06:12;;;;;;;15.93;3.72;;;;;;;12.76;92.91;101158.81;6052972;28;20034;-68
2023/05/23 13:09:08;;;;;;;14.53;3.57;;;;;;;12.60;93.18;101156.78;6053004;28;20466;-67
2023/05/23 13:12:03;;;;;;;11.27;3.15;;;;;;;12.60;92.49;101143.50;6053315;28;20069;-67
2023/05/23 13:14:59;;;;;;;7.65;2.78;;;;;;;12.96;91.51;101158.50;6052202;28;20385;-68
2023/05/23 13:17:54;;;;;;;7.40;2.33;;;;;;;13.25;89.91;101145.03;6052796;28;20065;-67
2023/05/23 13:20:50;;;;;;;11.93;2.67;;;;;;;13.50;86.91;101141.59;6032828;28;20081;-67